sensor_id;sensor_type;location;lat;lon;timestamp;P1;durP1;ratioP1;P2;durP2;ratioP2
6438;SDS011;3252;52.540;13.290;2022-12-07T00:00:23;11.83;;;9.37;;
6438;SDS011;3252;52.540;13.290;2022-12-07T00:02:25;12.90;;;10.88;;
6438;SDS011;3252;52.540;13.290;2022-12-07T00:04:27;11.20;;;9.97;;
6438;SDS011;3252;52.540;13.290;2022-12-07T00:06:29;13.73;;;12.25;;
6438;SDS011;3252;52.540;13.290;2022-12-07T00:08:32;10.70;;;9.60;;
6438;SDS011;3252;52.540;13.290;2022-12-07T00:10:35;10.50;;;9.40;;
6438;SDS011;3252;52.540;13.290;2022-12-07T00:12:38;10.93;;;9.57;;
6438;SDS011;3252;52.540;13.290;2022-12-07T00:14:41;10.90;;;9.27;;
6438;SDS011;3252;52.540;13.290;2022-12-07T00:16:45;13.03;;;9.63;;
6438;SDS011;3252;52.540;13.290;2022-12-07T00:18:52;10.07;;;9.07;;
6438;SDS011;3252;52.540;13.290;2022-12-07T00:20:58;9.73;;;8.73;;
6438;SDS011;3252;52.540;13.290;2022-12-07T00:23:02;10.93;;;9.03;;
6438;SDS011;3252;52.540;13.290;2022-12-07T00:25:04;10.17;;;9.07;;
6438;SDS011;3252;52.540;13.290;2022-12-07T00:27:07;11.35;;;10.20;;
6438;SDS011;3252;52.540;13.290;2022-12-07T00:29:11;11.30;;;9.70;;
6438;SDS011;3252;52.540;13.290;2022-12-07T00:31:19;10.57;;;9.47;;
6438;SDS011;3252;52.540;13.290;2022-12-07T00:33:22;11.07;;;9.23;;
6438;SDS011;3252;52.540;13.290;2022-12-07T00:37:56;10.20;;;8.70;;
6438;SDS011;3252;52.540;13.290;2022-12-07T00:39:58;9.03;;;8.13;;
6438;SDS011;3252;52.540;13.290;2022-12-07T00:42:00;10.23;;;8.73;;
6438;SDS011;3252;52.540;13.290;2022-12-07T00:44:02;10.97;;;8.63;;
6438;SDS011;3252;52.540;13.290;2022-12-07T00:46:04;10.10;;;8.60;;
6438;SDS011;3252;52.540;13.290;2022-12-07T00:48:08;8.87;;;7.97;;
6438;SDS011;3252;52.540;13.290;2022-12-07T00:50:10;8.73;;;7.83;;
6438;SDS011;3252;52.540;13.290;2022-12-07T00:52:12;9.70;;;7.93;;
6438;SDS011;3252;52.540;13.290;2022-12-07T00:54:14;9.13;;;7.53;;
6438;SDS011;3252;52.540;13.290;2022-12-07T00:56:17;9.13;;;7.80;;
6438;SDS011;3252;52.540;13.290;2022-12-07T00:58:21;8.17;;;7.30;;
6438;SDS011;3252;52.540;13.290;2022-12-07T01:00:23;11.30;;;7.90;;
6438;SDS011;3252;52.540;13.290;2022-12-07T01:02:25;8.67;;;7.77;;
6438;SDS011;3252;52.540;13.290;2022-12-07T01:04:28;9.00;;;7.60;;
6438;SDS011;3252;52.540;13.290;2022-12-07T01:06:31;9.23;;;8.03;;
6438;SDS011;3252;52.540;13.290;2022-12-07T01:08:33;9.00;;;7.90;;
6438;SDS011;3252;52.540;13.290;2022-12-07T01:10:36;8.77;;;7.80;;
6438;SDS011;3252;52.540;13.290;2022-12-07T01:12:38;8.73;;;7.37;;
6438;SDS011;3252;52.540;13.290;2022-12-07T01:14:41;10.90;;;7.97;;
6438;SDS011;3252;52.540;13.290;2022-12-07T01:16:43;8.73;;;7.27;;
6438;SDS011;3252;52.540;13.290;2022-12-07T01:18:46;8.57;;;6.97;;
6438;SDS011;3252;52.540;13.290;2022-12-07T01:20:57;8.63;;;6.80;;
6438;SDS011;3252;52.540;13.290;2022-12-07T01:23:00;8.67;;;7.63;;
6438;SDS011;3252;52.540;13.290;2022-12-07T01:25:03;8.10;;;6.27;;
6438;SDS011;3252;52.540;13.290;2022-12-07T01:27:05;7.37;;;6.13;;
6438;SDS011;3252;52.540;13.290;2022-12-07T01:29:07;6.83;;;6.13;;
6438;SDS011;3252;52.540;13.290;2022-12-07T01:31:10;7.83;;;6.27;;
6438;SDS011;3252;52.540;13.290;2022-12-07T01:33:15;6.53;;;5.83;;
6438;SDS011;3252;52.540;13.290;2022-12-07T01:35:17;7.57;;;6.17;;
6438;SDS011;3252;52.540;13.290;2022-12-07T01:37:20;7.53;;;6.50;;
6438;SDS011;3252;52.540;13.290;2022-12-07T01:39:22;6.80;;;5.70;;
6438;SDS011;3252;52.540;13.290;2022-12-07T01:41:25;7.50;;;5.90;;
6438;SDS011;3252;52.540;13.290;2022-12-07T01:43:29;6.57;;;5.63;;
6438;SDS011;3252;52.540;13.290;2022-12-07T01:45:39;7.60;;;5.73;;
6438;SDS011;3252;52.540;13.290;2022-12-07T01:47:42;7.40;;;6.13;;
6438;SDS011;3252;52.540;13.290;2022-12-07T01:49:47;6.63;;;5.80;;
6438;SDS011;3252;52.540;13.290;2022-12-07T01:51:51;8.50;;;5.87;;
6438;SDS011;3252;52.540;13.290;2022-12-07T01:53:59;8.80;;;6.03;;
6438;SDS011;3252;52.540;13.290;2022-12-07T01:56:03;7.07;;;5.70;;
6438;SDS011;3252;52.540;13.290;2022-12-07T01:58:07;7.90;;;6.27;;
6438;SDS011;3252;52.540;13.290;2022-12-07T02:00:11;11.97;;;6.20;;
6438;SDS011;3252;52.540;13.290;2022-12-07T02:02:16;6.13;;;5.27;;
6438;SDS011;3252;52.540;13.290;2022-12-07T02:04:21;6.63;;;5.73;;
6438;SDS011;3252;52.540;13.290;2022-12-07T02:06:24;9.30;;;6.50;;
6438;SDS011;3252;52.540;13.290;2022-12-07T02:08:27;6.87;;;6.00;;
6438;SDS011;3252;52.540;13.290;2022-12-07T02:10:31;6.80;;;6.10;;
6438;SDS011;3252;52.540;13.290;2022-12-07T02:12:33;6.33;;;5.20;;
6438;SDS011;3252;52.540;13.290;2022-12-07T02:14:36;8.03;;;5.27;;
6438;SDS011;3252;52.540;13.290;2022-12-07T02:16:41;5.30;;;4.73;;
6438;SDS011;3252;52.540;13.290;2022-12-07T02:18:55;10.33;;;5.70;;
6438;SDS011;3252;52.540;13.290;2022-12-07T02:21:11;5.87;;;5.27;;
6438;SDS011;3252;52.540;13.290;2022-12-07T02:23:38;6.23;;;5.07;;
6438;SDS011;3252;52.540;13.290;2022-12-07T02:28:17;6.10;;;5.00;;
6438;SDS011;3252;52.540;13.290;2022-12-07T02:30:30;7.97;;;5.73;;
6438;SDS011;3252;52.540;13.290;2022-12-07T02:32:41;6.50;;;5.37;;
6438;SDS011;3252;52.540;13.290;2022-12-07T02:35:03;7.37;;;6.20;;
6438;SDS011;3252;52.540;13.290;2022-12-07T02:37:10;6.97;;;5.80;;
6438;SDS011;3252;52.540;13.290;2022-12-07T02:39:22;8.00;;;6.47;;
6438;SDS011;3252;52.540;13.290;2022-12-07T02:41:36;7.10;;;6.40;;
6438;SDS011;3252;52.540;13.290;2022-12-07T02:43:46;7.07;;;5.83;;
6438;SDS011;3252;52.540;13.290;2022-12-07T02:45:54;8.00;;;6.57;;
6438;SDS011;3252;52.540;13.290;2022-12-07T02:48:00;9.33;;;7.00;;
6438;SDS011;3252;52.540;13.290;2022-12-07T02:50:06;10.23;;;7.30;;
6438;SDS011;3252;52.540;13.290;2022-12-07T02:52:09;8.43;;;7.20;;
6438;SDS011;3252;52.540;13.290;2022-12-07T02:54:11;9.27;;;7.47;;
6438;SDS011;3252;52.540;13.290;2022-12-07T02:56:17;8.60;;;7.40;;
6438;SDS011;3252;52.540;13.290;2022-12-07T02:58:30;11.33;;;8.23;;
6438;SDS011;3252;52.540;13.290;2022-12-07T03:00:41;12.60;;;7.97;;
6438;SDS011;3252;52.540;13.290;2022-12-07T03:02:56;11.03;;;8.30;;
6438;SDS011;3252;52.540;13.290;2022-12-07T03:05:07;9.20;;;7.90;;
6438;SDS011;3252;52.540;13.290;2022-12-07T03:07:24;10.03;;;8.20;;
6438;SDS011;3252;52.540;13.290;2022-12-07T03:09:33;12.87;;;9.23;;
6438;SDS011;3252;52.540;13.290;2022-12-07T03:11:41;9.70;;;8.03;;
6438;SDS011;3252;52.540;13.290;2022-12-07T03:13:48;12.90;;;9.07;;
6438;SDS011;3252;52.540;13.290;2022-12-07T03:15:58;9.80;;;8.50;;
6438;SDS011;3252;52.540;13.290;2022-12-07T03:18:08;13.53;;;9.87;;
6438;SDS011;3252;52.540;13.290;2022-12-07T03:20:14;12.20;;;9.83;;
6438;SDS011;3252;52.540;13.290;2022-12-07T03:22:20;12.00;;;10.10;;
6438;SDS011;3252;52.540;13.290;2022-12-07T03:24:24;14.00;;;11.33;;
6438;SDS011;3252;52.540;13.290;2022-12-07T03:26:30;14.87;;;11.87;;
6438;SDS011;3252;52.540;13.290;2022-12-07T03:28:36;16.87;;;11.60;;
6438;SDS011;3252;52.540;13.290;2022-12-07T03:30:45;14.33;;;11.77;;
6438;SDS011;3252;52.540;13.290;2022-12-07T03:32:50;19.07;;;13.20;;
6438;SDS011;3252;52.540;13.290;2022-12-07T03:34:59;16.03;;;12.37;;
6438;SDS011;3252;52.540;13.290;2022-12-07T03:37:08;16.53;;;12.47;;
6438;SDS011;3252;52.540;13.290;2022-12-07T03:39:17;15.60;;;12.77;;
6438;SDS011;3252;52.540;13.290;2022-12-07T03:41:25;18.53;;;13.20;;
6438;SDS011;3252;52.540;13.290;2022-12-07T03:43:30;16.20;;;13.27;;
6438;SDS011;3252;52.540;13.290;2022-12-07T03:45:34;19.23;;;13.50;;
6438;SDS011;3252;52.540;13.290;2022-12-07T03:47:42;15.60;;;12.50;;
6438;SDS011;3252;52.540;13.290;2022-12-07T03:49:49;18.97;;;12.47;;
6438;SDS011;3252;52.540;13.290;2022-12-07T03:51:56;17.37;;;13.40;;
6438;SDS011;3252;52.540;13.290;2022-12-07T03:54:05;17.00;;;13.20;;
6438;SDS011;3252;52.540;13.290;2022-12-07T03:56:12;17.97;;;13.27;;
6438;SDS011;3252;52.540;13.290;2022-12-07T03:58:16;18.30;;;14.33;;
6438;SDS011;3252;52.540;13.290;2022-12-07T04:00:20;19.83;;;14.30;;
6438;SDS011;3252;52.540;13.290;2022-12-07T04:02:23;18.10;;;13.80;;
6438;SDS011;3252;52.540;13.290;2022-12-07T04:04:27;18.67;;;13.67;;
6438;SDS011;3252;52.540;13.290;2022-12-07T04:06:30;18.83;;;14.30;;
6438;SDS011;3252;52.540;13.290;2022-12-07T04:08:35;17.50;;;14.30;;
6438;SDS011;3252;52.540;13.290;2022-12-07T04:10:37;17.93;;;14.13;;
6438;SDS011;3252;52.540;13.290;2022-12-07T04:12:39;19.97;;;14.33;;
6438;SDS011;3252;52.540;13.290;2022-12-07T04:14:41;17.97;;;14.37;;
6438;SDS011;3252;52.540;13.290;2022-12-07T04:16:43;18.83;;;14.77;;
6438;SDS011;3252;52.540;13.290;2022-12-07T04:18:46;21.37;;;15.67;;
6438;SDS011;3252;52.540;13.290;2022-12-07T04:20:48;21.77;;;16.10;;
6438;SDS011;3252;52.540;13.290;2022-12-07T04:22:50;21.10;;;17.00;;
6438;SDS011;3252;52.540;13.290;2022-12-07T04:24:54;20.27;;;15.70;;
6438;SDS011;3252;52.540;13.290;2022-12-07T04:26:56;23.07;;;17.43;;
6438;SDS011;3252;52.540;13.290;2022-12-07T04:28:58;24.07;;;17.23;;
6438;SDS011;3252;52.540;13.290;2022-12-07T04:31:00;20.60;;;16.93;;
6438;SDS011;3252;52.540;13.290;2022-12-07T04:33:02;25.57;;;18.07;;
6438;SDS011;3252;52.540;13.290;2022-12-07T04:35:05;25.93;;;18.07;;
6438;SDS011;3252;52.540;13.290;2022-12-07T04:37:07;29.70;;;18.83;;
6438;SDS011;3252;52.540;13.290;2022-12-07T04:39:13;25.47;;;18.27;;
6438;SDS011;3252;52.540;13.290;2022-12-07T04:41:20;23.47;;;18.80;;
6438;SDS011;3252;52.540;13.290;2022-12-07T04:43:27;24.43;;;18.07;;
6438;SDS011;3252;52.540;13.290;2022-12-07T04:45:29;25.93;;;19.57;;
6438;SDS011;3252;52.540;13.290;2022-12-07T04:47:31;25.57;;;19.33;;
6438;SDS011;3252;52.540;13.290;2022-12-07T04:49:33;25.97;;;19.03;;
6438;SDS011;3252;52.540;13.290;2022-12-07T04:51:35;26.87;;;18.93;;
6438;SDS011;3252;52.540;13.290;2022-12-07T04:53:38;25.20;;;19.83;;
6438;SDS011;3252;52.540;13.290;2022-12-07T04:55:40;26.43;;;20.00;;
6438;SDS011;3252;52.540;13.290;2022-12-07T04:57:43;25.20;;;19.97;;
6438;SDS011;3252;52.540;13.290;2022-12-07T04:59:46;24.00;;;19.40;;
6438;SDS011;3252;52.540;13.290;2022-12-07T05:01:48;26.70;;;20.10;;
6438;SDS011;3252;52.540;13.290;2022-12-07T05:03:50;29.83;;;20.43;;
6438;SDS011;3252;52.540;13.290;2022-12-07T05:05:52;27.57;;;20.93;;
6438;SDS011;3252;52.540;13.290;2022-12-07T05:07:54;27.80;;;21.37;;
6438;SDS011;3252;52.540;13.290;2022-12-07T05:09:56;29.40;;;22.17;;
6438;SDS011;3252;52.540;13.290;2022-12-07T05:11:59;30.50;;;21.73;;
6438;SDS011;3252;52.540;13.290;2022-12-07T05:14:02;30.90;;;23.30;;
6438;SDS011;3252;52.540;13.290;2022-12-07T05:16:06;32.90;;;24.43;;
6438;SDS011;3252;52.540;13.290;2022-12-07T05:18:08;29.23;;;22.53;;
6438;SDS011;3252;52.540;13.290;2022-12-07T05:20:13;28.37;;;22.13;;
6438;SDS011;3252;52.540;13.290;2022-12-07T05:22:15;41.53;;;29.07;;
6438;SDS011;3252;52.540;13.290;2022-12-07T05:24:18;28.37;;;21.13;;
6438;SDS011;3252;52.540;13.290;2022-12-07T05:26:20;27.73;;;21.73;;
6438;SDS011;3252;52.540;13.290;2022-12-07T05:28:22;29.77;;;21.97;;
6438;SDS011;3252;52.540;13.290;2022-12-07T05:30:27;29.47;;;21.40;;
6438;SDS011;3252;52.540;13.290;2022-12-07T05:32:31;29.70;;;21.10;;
6438;SDS011;3252;52.540;13.290;2022-12-07T05:34:33;27.73;;;21.40;;
6438;SDS011;3252;52.540;13.290;2022-12-07T05:36:35;33.23;;;23.70;;
6438;SDS011;3252;52.540;13.290;2022-12-07T05:38:37;32.07;;;22.87;;
6438;SDS011;3252;52.540;13.290;2022-12-07T05:40:39;31.80;;;23.40;;
6438;SDS011;3252;52.540;13.290;2022-12-07T05:42:42;31.97;;;22.33;;
6438;SDS011;3252;52.540;13.290;2022-12-07T05:44:44;38.87;;;24.60;;
6438;SDS011;3252;52.540;13.290;2022-12-07T05:46:48;32.97;;;23.80;;
6438;SDS011;3252;52.540;13.290;2022-12-07T05:48:51;38.30;;;24.73;;
6438;SDS011;3252;52.540;13.290;2022-12-07T05:50:53;33.43;;;23.80;;
6438;SDS011;3252;52.540;13.290;2022-12-07T05:52:55;32.07;;;23.67;;
6438;SDS011;3252;52.540;13.290;2022-12-07T05:54:57;32.63;;;23.40;;
6438;SDS011;3252;52.540;13.290;2022-12-07T05:57:00;35.80;;;23.83;;
6438;SDS011;3252;52.540;13.290;2022-12-07T05:59:02;33.30;;;23.07;;
6438;SDS011;3252;52.540;13.290;2022-12-07T06:01:21;35.00;;;23.13;;
6438;SDS011;3252;52.540;13.290;2022-12-07T06:03:25;36.33;;;23.93;;
6438;SDS011;3252;52.540;13.290;2022-12-07T06:05:28;33.37;;;22.97;;
6438;SDS011;3252;52.540;13.290;2022-12-07T06:07:30;34.83;;;22.83;;
6438;SDS011;3252;52.540;13.290;2022-12-07T06:09:33;37.47;;;24.97;;
6438;SDS011;3252;52.540;13.290;2022-12-07T06:11:36;33.93;;;24.13;;
6438;SDS011;3252;52.540;13.290;2022-12-07T06:13:56;32.33;;;22.40;;
6438;SDS011;3252;52.540;13.290;2022-12-07T06:15:58;39.57;;;25.83;;
6438;SDS011;3252;52.540;13.290;2022-12-07T06:18:00;39.93;;;25.20;;
6438;SDS011;3252;52.540;13.290;2022-12-07T06:20:04;34.20;;;22.80;;
6438;SDS011;3252;52.540;13.290;2022-12-07T06:22:07;36.97;;;24.30;;
6438;SDS011;3252;52.540;13.290;2022-12-07T06:24:12;32.20;;;22.47;;
6438;SDS011;3252;52.540;13.290;2022-12-07T06:26:15;33.50;;;22.77;;
6438;SDS011;3252;52.540;13.290;2022-12-07T06:28:17;28.93;;;21.80;;
6438;SDS011;3252;52.540;13.290;2022-12-07T06:30:19;30.17;;;20.90;;
6438;SDS011;3252;52.540;13.290;2022-12-07T06:32:22;34.33;;;22.87;;
6438;SDS011;3252;52.540;13.290;2022-12-07T06:34:24;29.53;;;21.97;;
6438;SDS011;3252;52.540;13.290;2022-12-07T06:36:28;35.87;;;22.70;;
6438;SDS011;3252;52.540;13.290;2022-12-07T06:38:31;30.90;;;22.63;;
6438;SDS011;3252;52.540;13.290;2022-12-07T06:40:33;33.60;;;22.87;;
6438;SDS011;3252;52.540;13.290;2022-12-07T06:42:35;37.93;;;24.23;;
6438;SDS011;3252;52.540;13.290;2022-12-07T06:44:37;35.87;;;24.27;;
6438;SDS011;3252;52.540;13.290;2022-12-07T06:46:41;33.90;;;22.67;;
6438;SDS011;3252;52.540;13.290;2022-12-07T06:48:43;33.83;;;22.67;;
6438;SDS011;3252;52.540;13.290;2022-12-07T06:50:45;34.37;;;21.97;;
6438;SDS011;3252;52.540;13.290;2022-12-07T06:52:50;34.57;;;22.20;;
6438;SDS011;3252;52.540;13.290;2022-12-07T06:54:53;33.50;;;23.63;;
6438;SDS011;3252;52.540;13.290;2022-12-07T06:56:56;37.80;;;24.27;;
6438;SDS011;3252;52.540;13.290;2022-12-07T06:58:59;33.37;;;22.70;;
6438;SDS011;3252;52.540;13.290;2022-12-07T07:01:01;36.23;;;23.30;;
6438;SDS011;3252;52.540;13.290;2022-12-07T07:03:05;37.00;;;24.20;;
6438;SDS011;3252;52.540;13.290;2022-12-07T07:05:08;33.60;;;23.47;;
6438;SDS011;3252;52.540;13.290;2022-12-07T07:07:10;36.67;;;23.93;;
6438;SDS011;3252;52.540;13.290;2022-12-07T07:09:14;36.67;;;23.10;;
6438;SDS011;3252;52.540;13.290;2022-12-07T07:11:17;31.20;;;21.93;;
6438;SDS011;3252;52.540;13.290;2022-12-07T07:13:19;31.67;;;21.10;;
6438;SDS011;3252;52.540;13.290;2022-12-07T07:15:22;32.77;;;20.37;;
6438;SDS011;3252;52.540;13.290;2022-12-07T07:17:25;33.73;;;20.83;;
6438;SDS011;3252;52.540;13.290;2022-12-07T07:19:28;32.00;;;21.23;;
6438;SDS011;3252;52.540;13.290;2022-12-07T07:21:30;39.20;;;21.53;;
6438;SDS011;3252;52.540;13.290;2022-12-07T07:23:32;29.93;;;20.30;;
6438;SDS011;3252;52.540;13.290;2022-12-07T07:25:43;25.73;;;18.63;;
6438;SDS011;3252;52.540;13.290;2022-12-07T07:27:49;28.00;;;19.70;;
6438;SDS011;3252;52.540;13.290;2022-12-07T07:29:51;26.43;;;19.00;;
6438;SDS011;3252;52.540;13.290;2022-12-07T07:31:54;24.27;;;17.37;;
6438;SDS011;3252;52.540;13.290;2022-12-07T07:33:57;24.20;;;16.53;;
6438;SDS011;3252;52.540;13.290;2022-12-07T07:35:59;23.97;;;16.13;;
6438;SDS011;3252;52.540;13.290;2022-12-07T07:38:01;24.40;;;16.63;;
6438;SDS011;3252;52.540;13.290;2022-12-07T07:40:04;23.97;;;16.33;;
6438;SDS011;3252;52.540;13.290;2022-12-07T07:42:09;21.27;;;15.00;;
6438;SDS011;3252;52.540;13.290;2022-12-07T07:44:12;23.40;;;15.93;;
6438;SDS011;3252;52.540;13.290;2022-12-07T07:46:17;19.97;;;14.70;;
6438;SDS011;3252;52.540;13.290;2022-12-07T07:48:19;22.60;;;14.73;;
6438;SDS011;3252;52.540;13.290;2022-12-07T07:50:23;72.67;;;44.97;;
6438;SDS011;3252;52.540;13.290;2022-12-07T07:52:27;17.53;;;13.50;;
6438;SDS011;3252;52.540;13.290;2022-12-07T07:54:30;21.40;;;12.63;;
6438;SDS011;3252;52.540;13.290;2022-12-07T07:56:32;18.43;;;12.83;;
6438;SDS011;3252;52.540;13.290;2022-12-07T07:58:35;17.40;;;12.57;;
6438;SDS011;3252;52.540;13.290;2022-12-07T08:00:39;19.27;;;12.87;;
6438;SDS011;3252;52.540;13.290;2022-12-07T08:02:42;19.60;;;11.93;;
6438;SDS011;3252;52.540;13.290;2022-12-07T08:04:45;18.17;;;10.70;;
6438;SDS011;3252;52.540;13.290;2022-12-07T08:06:48;15.73;;;10.60;;
6438;SDS011;3252;52.540;13.290;2022-12-07T08:08:51;14.73;;;9.80;;
6438;SDS011;3252;52.540;13.290;2022-12-07T08:10:54;15.90;;;10.40;;
6438;SDS011;3252;52.540;13.290;2022-12-07T08:12:56;12.40;;;9.30;;
6438;SDS011;3252;52.540;13.290;2022-12-07T08:15:17;16.13;;;8.97;;
6438;SDS011;3252;52.540;13.290;2022-12-07T08:17:23;11.13;;;7.30;;
6438;SDS011;3252;52.540;13.290;2022-12-07T08:19:26;10.07;;;7.40;;
6438;SDS011;3252;52.540;13.290;2022-12-07T08:21:29;10.70;;;7.50;;
6438;SDS011;3252;52.540;13.290;2022-12-07T08:23:32;12.80;;;7.13;;
6438;SDS011;3252;52.540;13.290;2022-12-07T08:25:36;12.47;;;6.80;;
6438;SDS011;3252;52.540;13.290;2022-12-07T08:27:38;7.83;;;5.93;;
6438;SDS011;3252;52.540;13.290;2022-12-07T08:29:43;10.57;;;5.53;;
6438;SDS011;3252;52.540;13.290;2022-12-07T08:31:47;10.43;;;5.60;;
6438;SDS011;3252;52.540;13.290;2022-12-07T08:33:49;10.07;;;5.53;;
6438;SDS011;3252;52.540;13.290;2022-12-07T08:35:51;11.17;;;4.63;;
6438;SDS011;3252;52.540;13.290;2022-12-07T08:37:53;10.63;;;4.53;;
6438;SDS011;3252;52.540;13.290;2022-12-07T08:39:58;6.57;;;4.03;;
6438;SDS011;3252;52.540;13.290;2022-12-07T08:42:00;7.17;;;3.60;;
6438;SDS011;3252;52.540;13.290;2022-12-07T08:44:02;4.33;;;3.00;;
6438;SDS011;3252;52.540;13.290;2022-12-07T08:46:06;5.43;;;2.53;;
6438;SDS011;3252;52.540;13.290;2022-12-07T08:48:13;4.53;;;2.60;;
6438;SDS011;3252;52.540;13.290;2022-12-07T08:50:22;2.60;;;2.10;;
6438;SDS011;3252;52.540;13.290;2022-12-07T08:52:25;4.70;;;2.23;;
6438;SDS011;3252;52.540;13.290;2022-12-07T08:54:27;3.37;;;2.20;;
6438;SDS011;3252;52.540;13.290;2022-12-07T08:56:30;4.50;;;2.00;;
6438;SDS011;3252;52.540;13.290;2022-12-07T08:58:33;3.63;;;1.77;;
6438;SDS011;3252;52.540;13.290;2022-12-07T09:00:41;4.63;;;1.80;;
6438;SDS011;3252;52.540;13.290;2022-12-07T09:02:44;3.83;;;2.03;;
6438;SDS011;3252;52.540;13.290;2022-12-07T09:04:49;5.20;;;1.93;;
6438;SDS011;3252;52.540;13.290;2022-12-07T09:07:17;3.03;;;1.73;;
6438;SDS011;3252;52.540;13.290;2022-12-07T09:09:21;4.20;;;1.53;;
6438;SDS011;3252;52.540;13.290;2022-12-07T09:11:23;4.13;;;1.63;;
6438;SDS011;3252;52.540;13.290;2022-12-07T09:13:26;3.47;;;1.73;;
6438;SDS011;3252;52.540;13.290;2022-12-07T09:15:29;1.63;;;1.40;;
6438;SDS011;3252;52.540;13.290;2022-12-07T09:17:32;2.60;;;1.57;;
6438;SDS011;3252;52.540;13.290;2022-12-07T09:19:36;3.17;;;1.60;;
6438;SDS011;3252;52.540;13.290;2022-12-07T09:21:41;2.23;;;1.50;;
6438;SDS011;3252;52.540;13.290;2022-12-07T09:23:44;2.10;;;1.60;;
6438;SDS011;3252;52.540;13.290;2022-12-07T09:25:49;4.07;;;1.90;;
6438;SDS011;3252;52.540;13.290;2022-12-07T09:27:55;3.70;;;1.57;;
6438;SDS011;3252;52.540;13.290;2022-12-07T09:30:05;4.63;;;1.70;;
6438;SDS011;3252;52.540;13.290;2022-12-07T09:32:08;3.30;;;1.80;;
6438;SDS011;3252;52.540;13.290;2022-12-07T09:34:11;3.93;;;2.27;;
6438;SDS011;3252;52.540;13.290;2022-12-07T09:36:14;2.00;;;1.80;;
6438;SDS011;3252;52.540;13.290;2022-12-07T09:38:19;5.33;;;1.83;;
6438;SDS011;3252;52.540;13.290;2022-12-07T09:40:22;2.00;;;1.50;;
6438;SDS011;3252;52.540;13.290;2022-12-07T09:42:27;2.13;;;1.60;;
6438;SDS011;3252;52.540;13.290;2022-12-07T09:44:35;2.43;;;1.60;;
6438;SDS011;3252;52.540;13.290;2022-12-07T09:46:41;1.40;;;1.30;;
6438;SDS011;3252;52.540;13.290;2022-12-07T09:48:45;2.43;;;1.30;;
6438;SDS011;3252;52.540;13.290;2022-12-07T09:50:49;4.20;;;1.63;;
6438;SDS011;3252;52.540;13.290;2022-12-07T09:53:24;3.00;;;1.50;;
6438;SDS011;3252;52.540;13.290;2022-12-07T09:55:30;4.13;;;1.53;;
6438;SDS011;3252;52.540;13.290;2022-12-07T09:57:37;3.43;;;1.50;;
6438;SDS011;3252;52.540;13.290;2022-12-07T09:59:55;3.43;;;1.77;;
6438;SDS011;3252;52.540;13.290;2022-12-07T10:02:19;5.10;;;1.70;;
6438;SDS011;3252;52.540;13.290;2022-12-07T10:04:28;1.80;;;1.70;;
6438;SDS011;3252;52.540;13.290;2022-12-07T10:06:31;2.47;;;2.03;;
6438;SDS011;3252;52.540;13.290;2022-12-07T10:08:34;1.67;;;1.53;;
6438;SDS011;3252;52.540;13.290;2022-12-07T10:10:36;3.60;;;1.80;;
6438;SDS011;3252;52.540;13.290;2022-12-07T10:12:52;3.10;;;1.80;;
6438;SDS011;3252;52.540;13.290;2022-12-07T10:15:00;2.03;;;1.50;;
6438;SDS011;3252;52.540;13.290;2022-12-07T10:19:30;2.67;;;1.53;;
6438;SDS011;3252;52.540;13.290;2022-12-07T10:21:34;5.03;;;1.80;;
6438;SDS011;3252;52.540;13.290;2022-12-07T10:23:38;3.20;;;1.80;;
6438;SDS011;3252;52.540;13.290;2022-12-07T10:25:41;5.90;;;2.13;;
6438;SDS011;3252;52.540;13.290;2022-12-07T10:27:43;4.13;;;2.00;;
6438;SDS011;3252;52.540;13.290;2022-12-07T10:30:01;4.93;;;2.40;;
6438;SDS011;3252;52.540;13.290;2022-12-07T10:32:24;7.00;;;2.00;;
6438;SDS011;3252;52.540;13.290;2022-12-07T10:34:35;2.40;;;1.90;;
6438;SDS011;3252;52.540;13.290;2022-12-07T10:36:38;2.27;;;1.83;;
6438;SDS011;3252;52.540;13.290;2022-12-07T10:38:44;6.90;;;3.87;;
6438;SDS011;3252;52.540;13.290;2022-12-07T10:40:48;4.13;;;2.80;;
6438;SDS011;3252;52.540;13.290;2022-12-07T10:43:06;3.40;;;2.10;;
6438;SDS011;3252;52.540;13.290;2022-12-07T10:45:19;8.37;;;2.47;;
6438;SDS011;3252;52.540;13.290;2022-12-07T10:47:25;3.60;;;1.97;;
6438;SDS011;3252;52.540;13.290;2022-12-07T10:49:45;5.50;;;2.50;;
6438;SDS011;3252;52.540;13.290;2022-12-07T10:52:04;5.30;;;2.57;;
6438;SDS011;3252;52.540;13.290;2022-12-07T10:54:17;5.30;;;2.50;;
6438;SDS011;3252;52.540;13.290;2022-12-07T10:56:34;5.23;;;2.77;;
6438;SDS011;3252;52.540;13.290;2022-12-07T10:58:51;2.93;;;2.00;;
6438;SDS011;3252;52.540;13.290;2022-12-07T11:01:02;6.40;;;2.60;;
6438;SDS011;3252;52.540;13.290;2022-12-07T11:03:19;3.20;;;2.57;;
6438;SDS011;3252;52.540;13.290;2022-12-07T11:05:35;4.70;;;2.20;;
6438;SDS011;3252;52.540;13.290;2022-12-07T11:07:45;4.60;;;2.50;;
6438;SDS011;3252;52.540;13.290;2022-12-07T11:10:02;7.67;;;3.10;;
6438;SDS011;3252;52.540;13.290;2022-12-07T11:12:11;4.47;;;2.70;;
6438;SDS011;3252;52.540;13.290;2022-12-07T11:14:22;6.43;;;2.60;;
6438;SDS011;3252;52.540;13.290;2022-12-07T11:16:39;4.80;;;2.30;;
6438;SDS011;3252;52.540;13.290;2022-12-07T11:18:54;5.17;;;2.50;;
6438;SDS011;3252;52.540;13.290;2022-12-07T11:21:07;4.70;;;2.70;;
6438;SDS011;3252;52.540;13.290;2022-12-07T11:23:16;4.67;;;2.47;;
6438;SDS011;3252;52.540;13.290;2022-12-07T11:25:30;6.70;;;3.37;;
6438;SDS011;3252;52.540;13.290;2022-12-07T11:27:37;8.90;;;3.50;;
6438;SDS011;3252;52.540;13.290;2022-12-07T11:29:50;7.97;;;3.37;;
6438;SDS011;3252;52.540;13.290;2022-12-07T11:32:13;6.13;;;3.60;;
6438;SDS011;3252;52.540;13.290;2022-12-07T11:34:22;5.43;;;3.37;;
6438;SDS011;3252;52.540;13.290;2022-12-07T11:36:33;6.83;;;3.43;;
6438;SDS011;3252;52.540;13.290;2022-12-07T11:38:42;5.57;;;3.00;;
6438;SDS011;3252;52.540;13.290;2022-12-07T11:40:48;7.60;;;2.90;;
6438;SDS011;3252;52.540;13.290;2022-12-07T11:42:52;4.70;;;2.70;;
6438;SDS011;3252;52.540;13.290;2022-12-07T11:44:59;4.20;;;2.70;;
6438;SDS011;3252;52.540;13.290;2022-12-07T11:47:05;6.33;;;2.80;;
6438;SDS011;3252;52.540;13.290;2022-12-07T11:49:12;8.63;;;3.20;;
6438;SDS011;3252;52.540;13.290;2022-12-07T11:51:20;6.97;;;2.87;;
6438;SDS011;3252;52.540;13.290;2022-12-07T11:53:25;7.73;;;2.80;;
6438;SDS011;3252;52.540;13.290;2022-12-07T11:55:39;7.97;;;2.90;;
6438;SDS011;3252;52.540;13.290;2022-12-07T11:57:45;9.17;;;3.40;;
6438;SDS011;3252;52.540;13.290;2022-12-07T11:59:52;7.60;;;2.77;;
6438;SDS011;3252;52.540;13.290;2022-12-07T12:02:02;10.77;;;3.17;;
6438;SDS011;3252;52.540;13.290;2022-12-07T12:04:18;9.50;;;2.90;;
6438;SDS011;3252;52.540;13.290;2022-12-07T12:06:29;10.37;;;2.67;;
6438;SDS011;3252;52.540;13.290;2022-12-07T12:08:32;9.03;;;2.77;;
6438;SDS011;3252;52.540;13.290;2022-12-07T12:10:39;5.87;;;2.50;;
6438;SDS011;3252;52.540;13.290;2022-12-07T12:13:02;7.97;;;2.80;;
6438;SDS011;3252;52.540;13.290;2022-12-07T12:15:16;10.13;;;2.87;;
6438;SDS011;3252;52.540;13.290;2022-12-07T12:17:38;6.63;;;2.70;;
6438;SDS011;3252;52.540;13.290;2022-12-07T12:19:59;4.93;;;2.27;;
6438;SDS011;3252;52.540;13.290;2022-12-07T12:22:06;7.80;;;2.70;;
6438;SDS011;3252;52.540;13.290;2022-12-07T12:24:14;9.63;;;2.80;;
6438;SDS011;3252;52.540;13.290;2022-12-07T12:26:20;9.13;;;2.63;;
6438;SDS011;3252;52.540;13.290;2022-12-07T12:28:27;6.97;;;2.50;;
6438;SDS011;3252;52.540;13.290;2022-12-07T12:30:34;8.70;;;2.70;;
6438;SDS011;3252;52.540;13.290;2022-12-07T12:32:39;6.53;;;2.30;;
6438;SDS011;3252;52.540;13.290;2022-12-07T12:34:57;8.93;;;2.63;;
6438;SDS011;3252;52.540;13.290;2022-12-07T12:37:02;8.33;;;2.63;;
6438;SDS011;3252;52.540;13.290;2022-12-07T12:39:08;9.10;;;2.60;;
6438;SDS011;3252;52.540;13.290;2022-12-07T12:41:22;13.13;;;2.20;;
6438;SDS011;3252;52.540;13.290;2022-12-07T12:46:58;5.97;;;2.47;;
6438;SDS011;3252;52.540;13.290;2022-12-07T12:49:14;10.73;;;2.63;;